Sarah D — WDI9093 — position and weather

sailwx.info

Track history (hours):
 
Tides and Currents Weather Stations Pressure Air Temp Water Temp Dewpoint Dewpoint Depression Visibility Wind Speed Wind Dir Waves Ship Positions

Sarah D

Owner: New York State Marine Highway Transportation LLC, Troy, NY. More information available from US FCC via Universal Licensing System and Coast Guard Vessel Documentation Center.

Last reported at 2017-Oct-18 11:01 UTC. Time now 2017-Oct-18 11:21 UTC.
Position N 40°40' W 074°01'.

Length 29 m; draft 4 m.

Type: Towing. MMSI: 367177370.

Date/timePositionNaut miles runAvg speedWind from/ knotsBaromVisibWave heightAir tempDewpointWater temp
2017-Oct-18 11:01N 40°40' W 074°01'0 0.0
2017-Oct-18 10:31N 40°40' W 074°01'0 0.0
2017-Oct-18 10:00N 40°40' W 074°01'0 0.0
2017-Oct-18 09:31N 40°40' W 074°01'0 0.0
2017-Oct-18 09:01N 40°40' W 074°01'0 0.0
2017-Oct-18 08:31N 40°40' W 074°01'0 0.0
2017-Oct-18 08:01N 40°40' W 074°01'0 0.0
2017-Oct-18 07:31N 40°40' W 074°01'0 0.0
2017-Oct-18 07:01N 40°40' W 074°01'0 0.0
2017-Oct-18 06:31N 40°40' W 074°01'0 0.0
2017-Oct-18 06:01N 40°40' W 074°01'0 0.0
2017-Oct-18 05:31N 40°40' W 074°01'0 0.0
2017-Oct-18 05:00N 40°40' W 074°01'0 0.0
2017-Oct-18 04:31N 40°40' W 074°01'0 0.0
2017-Oct-18 04:01N 40°40' W 074°01'0 0.0
2017-Oct-18 03:31N 40°40' W 074°01'0 0.0
2017-Oct-18 03:01N 40°40' W 074°01'1 2.2
2017-Oct-18 02:30N 40°40' W 074°02'2 3.6
2017-Oct-18 02:00N 40°38' W 074°03'4 7.6
2017-Oct-18 01:27N 40°34' W 074°00'12 7.4
2017-Oct-17 23:46N 40°38' W 073°45'0 1.0
2017-Oct-17 23:23N 40°38' W 073°45'3 8.6
2017-Oct-17 23:00N 40°36' W 073°49'4 6.5
2017-Oct-17 22:27N 40°34' W 073°53'5 9.8
2017-Oct-17 21:58N 40°34' W 073°59'4 8.4
2017-Oct-17 21:30N 40°37' W 074°03'3 5.5
2017-Oct-17 21:01N 40°40' W 074°02'3 6.2
2017-Oct-17 20:30N 40°37' W 074°02'13 5.0
2017-Oct-17 17:49N 40°38' W 073°45'0 0.1
2017-Oct-17 17:25N 40°38' W 073°45'0 0.0
2017-Oct-17 17:00N 40°38' W 073°45'0 0.0
2017-Oct-17 16:29N 40°38' W 073°45'0 0.0
2017-Oct-17 16:00N 40°38' W 073°45'0 0.0
2017-Oct-17 15:30N 40°38' W 073°45'0 0.0
2017-Oct-17 13:51N 40°38' W 073°45'0 0.2
2017-Oct-17 13:29N 40°38' W 073°45'0 0.0
2017-Oct-17 13:00N 40°38' W 073°45'0 0.0
2017-Oct-17 12:06N 40°38' W 073°45'0 0.1
2017-Oct-17 11:37N 40°38' W 073°45'0 0.1
2017-Oct-17 11:26N 40°38' W 073°45'1 1.6
2017-Oct-17 10:53N 40°38' W 073°46'3 6.2
2017-Oct-17 10:25N 40°36' W 073°49'1 2.5
2017-Oct-17 09:59N 40°35' W 073°50'3 6.7
2017-Oct-17 09:30N 40°34' W 073°54'1 1.2
2017-Oct-17 09:00N 40°34' W 073°55'3 5.2
2017-Oct-17 08:30N 40°34' W 073°58'2 4.4
2017-Oct-17 08:00N 40°34' W 074°01'3 5.1
2017-Oct-17 07:30N 40°37' W 074°03'2 4.3
2017-Oct-17 07:01N 40°39' W 074°02'1 1.1
2017-Oct-17 06:31N 40°39' W 074°02'0 0.1
2017-Oct-17 06:00N 40°39' W 074°02'0 0.0
2017-Oct-17 05:30N 40°39' W 074°02'0 0.0
2017-Oct-17 05:00N 40°39' W 074°02'0 0.0
2017-Oct-17 04:30N 40°39' W 074°02'0 0.0
2017-Oct-17 04:00N 40°39' W 074°02'1 1.4
2017-Oct-17 03:31N 40°40' W 074°03'4 7.1
2017-Oct-17 03:00N 40°43' W 074°01'3 6.8
2017-Oct-17 02:30N 40°47' W 074°00'3 6.1
2017-Oct-17 02:00N 40°49' W 073°58'2 5.0
2017-Oct-17 01:30N 40°52' W 073°57'2 4.4
2017-Oct-17 00:58N 40°54' W 073°56'  
2017-Oct-14 07:57N 40°53' W 073°56'4 7.8
2017-Oct-14 07:30N 40°50' W 073°58'4 7.7
2017-Oct-14 07:00N 40°47' W 073°60'4 7.1
2017-Oct-14 06:30N 40°43' W 074°01'3 6.6
2017-Oct-14 06:00N 40°40' W 074°03'1 2.3
2017-Oct-14 05:30N 40°39' W 074°02'0 0.5
2017-Oct-14 05:00N 40°39' W 074°02'0 0.1
2017-Oct-14 04:30N 40°39' W 074°02'3 6.7
2017-Oct-14 04:00N 40°39' W 074°06'0 0.1
2017-Oct-13 21:57N 40°39' W 074°07'3 6.3
2017-Oct-13 21:30N 40°40' W 074°03'2 3.5
2017-Oct-13 21:00N 40°40' W 074°01'0 0.0
2017-Oct-13 20:30N 40°40' W 074°01'0 0.0
2017-Oct-13 20:00N 40°40' W 074°01'0 0.0
2017-Oct-13 19:30N 40°40' W 074°01'0 0.5
2017-Oct-13 19:00N 40°40' W 074°01'1 2.4
2017-Oct-13 18:30N 40°39' W 074°02'1 2.8
2017-Oct-13 18:00N 40°38' W 074°03'3 5.8
2017-Oct-13 17:28N 40°35' W 074°01'6 5.2
2017-Oct-13 16:17N 40°34' W 073°53'7 3.7
2017-Oct-13 14:18N 40°38' W 073°45'0 0.0
2017-Oct-13 13:57N 40°38' W 073°45'0 0.0
2017-Oct-13 12:45N 40°38' W 073°45'0 0.0
2017-Oct-13 03:49N 40°38' W 073°45'0 0.0
2017-Oct-13 03:29N 40°38' W 073°45'0 0.0
2017-Oct-13 03:00N 40°38' W 073°45'0 0.0
2017-Oct-13 02:18N 40°38' W 073°45'4 0.2
2017-Oct-12 04:17N 40°35' W 073°49'1 4.9
2017-Oct-12 04:00N 40°35' W 073°51'3 5.2
2017-Oct-12 03:29N 40°34' W 073°54'0 0.1
2017-Oct-12 02:59N 40°34' W 073°54'2 4.6
2017-Oct-12 02:29N 40°34' W 073°57'2 3.1
2017-Oct-12 02:00N 40°34' W 073°59'2 3.1
2017-Oct-12 01:30N 40°34' W 074°01'2 4.5
2017-Oct-12 01:00N 40°36' W 074°02'2 3.8
2017-Oct-12 00:30N 40°38' W 074°03'1 2.3
2017-Oct-12 00:00N 40°39' W 074°02'0 0.1
2017-Oct-11 23:30N 40°39' W 074°02'1 2.5
2017-Oct-11 23:00N 40°40' W 074°01'0 0.0
2017-Oct-11 22:30N 40°40' W 074°01'1 2.5
2017-Oct-11 22:00N 40°39' W 074°02'0 0.2
2017-Oct-11 21:30N 40°39' W 074°02'1 2.5
2017-Oct-11 21:00N 40°40' W 074°03'3 5.8
2017-Oct-11 20:30N 40°43' W 074°01'3 5.5
2017-Oct-11 20:01N 40°46' W 074°01'2 4.7
2017-Oct-11 19:30N 40°48' W 073°59'2 3.9
2017-Oct-11 18:59N 40°50' W 073°58'2 3.5
2017-Oct-11 18:30N 40°51' W 073°57'2 3.4
2017-Oct-11 18:01N 40°53' W 073°56'0 0.0
2017-Oct-09 14:12N 40°53' W 073°56'2 9.4
2017-Oct-09 14:00N 40°51' W 073°57'4 8.7
2017-Oct-09 13:30N 40°47' W 073°59'4 7.9
2017-Oct-09 13:01N 40°44' W 074°01'4 7.5
2017-Oct-09 12:30N 40°40' W 074°02'1 1.4
2017-Oct-09 12:00N 40°40' W 074°02'0 0.0
2017-Oct-09 11:31N 40°40' W 074°02'0 0.4
2017-Oct-09 11:00N 40°39' W 074°02'0 0.1
2017-Oct-09 10:31N 40°39' W 074°02'0 0.0
2017-Oct-09 10:00N 40°39' W 074°02'0 0.0
2017-Oct-09 09:30N 40°39' W 074°02'0 0.3
2017-Oct-09 09:01N 40°39' W 074°02'0 0.4
2017-Oct-09 08:31N 40°39' W 074°02'3 5.4
2017-Oct-09 08:00N 40°37' W 074°03'2 3.0
2017-Oct-09 07:29N 40°35' W 074°02'10 2.2
2017-Oct-09 02:56N 40°36' W 073°49'3 4.7
2017-Oct-09 02:23N 40°35' W 073°52'2 4.7
2017-Oct-09 01:58N 40°34' W 073°54'1 2.9
2017-Oct-09 01:29N 40°34' W 073°56'2 4.2
2017-Oct-09 00:58N 40°34' W 073°59'2 3.5
2017-Oct-09 00:30N 40°34' W 074°01'3 5.1
2017-Oct-09 00:01N 40°36' W 074°03'2 4.8
2017-Oct-08 23:31N 40°39' W 074°02'1 1.2
2017-Oct-08 23:01N 40°39' W 074°02'0 0.2
2017-Oct-08 22:31N 40°39' W 074°02'0 0.0
2017-Oct-08 22:01N 40°39' W 074°02'0 0.0
2017-Oct-08 21:30N 40°39' W 074°02'0 0.1
2017-Oct-08 21:00N 40°39' W 074°02'0 0.2
2017-Oct-08 20:31N 40°39' W 074°02'1 1.3
2017-Oct-08 20:00N 40°39' W 074°03'4 7.4
2017-Oct-08 19:30N 40°43' W 074°01'4 7.3
2017-Oct-08 19:00N 40°46' W 074°00'3 6.6
2017-Oct-08 18:30N 40°49' W 073°58'3 5.8
2017-Oct-08 18:00N 40°52' W 073°57'  
Track history (hours):
 
Tides and Currents Weather Stations Pressure Air Temp Water Temp Dewpoint Dewpoint Depression Visibility Wind Speed Wind Dir Waves Ship Positions

Sarah D

Owner: New York State Marine Highway Transportation LLC, Troy, NY. More information available from US FCC via Universal Licensing System and Coast Guard Vessel Documentation Center.

Last reported at 2017-Oct-18 11:01 UTC. Time now 2017-Oct-18 11:21 UTC.
Position N 40°40' W 074°01'.

Length 29 m; draft 4 m.

Type: Towing. MMSI: 367177370.

Date/timePositionNaut miles runAvg speedWind from/ knotsBaromVisibWave heightAir tempDewpointWater temp
2017-Oct-18 11:01N 40°40' W 074°01'0 0.0
2017-Oct-18 10:31N 40°40' W 074°01'0 0.0
2017-Oct-18 10:00N 40°40' W 074°01'0 0.0
2017-Oct-18 09:31N 40°40' W 074°01'0 0.0
2017-Oct-18 09:01N 40°40' W 074°01'0 0.0
2017-Oct-18 08:31N 40°40' W 074°01'0 0.0
2017-Oct-18 08:01N 40°40' W 074°01'0 0.0
2017-Oct-18 07:31N 40°40' W 074°01'0 0.0
2017-Oct-18 07:01N 40°40' W 074°01'0 0.0
2017-Oct-18 06:31N 40°40' W 074°01'0 0.0
2017-Oct-18 06:01N 40°40' W 074°01'0 0.0
2017-Oct-18 05:31N 40°40' W 074°01'0 0.0
2017-Oct-18 05:00N 40°40' W 074°01'0 0.0
2017-Oct-18 04:31N 40°40' W 074°01'0 0.0
2017-Oct-18 04:01N 40°40' W 074°01'0 0.0
2017-Oct-18 03:31N 40°40' W 074°01'0 0.0
2017-Oct-18 03:01N 40°40' W 074°01'1 2.2
2017-Oct-18 02:30N 40°40' W 074°02'2 3.6
2017-Oct-18 02:00N 40°38' W 074°03'4 7.6
2017-Oct-18 01:27N 40°34' W 074°00'12 7.4
2017-Oct-17 23:46N 40°38' W 073°45'0 1.0
2017-Oct-17 23:23N 40°38' W 073°45'3 8.6
2017-Oct-17 23:00N 40°36' W 073°49'4 6.5
2017-Oct-17 22:27N 40°34' W 073°53'5 9.8
2017-Oct-17 21:58N 40°34' W 073°59'4 8.4
2017-Oct-17 21:30N 40°37' W 074°03'3 5.5
2017-Oct-17 21:01N 40°40' W 074°02'3 6.2
2017-Oct-17 20:30N 40°37' W 074°02'13 5.0
2017-Oct-17 17:49N 40°38' W 073°45'0 0.1
2017-Oct-17 17:25N 40°38' W 073°45'0 0.0
2017-Oct-17 17:00N 40°38' W 073°45'0 0.0
2017-Oct-17 16:29N 40°38' W 073°45'0 0.0
2017-Oct-17 16:00N 40°38' W 073°45'0 0.0
2017-Oct-17 15:30N 40°38' W 073°45'0 0.0
2017-Oct-17 13:51N 40°38' W 073°45'0 0.2
2017-Oct-17 13:29N 40°38' W 073°45'0 0.0
2017-Oct-17 13:00N 40°38' W 073°45'0 0.0
2017-Oct-17 12:06N 40°38' W 073°45'0 0.1
2017-Oct-17 11:37N 40°38' W 073°45'0 0.1
2017-Oct-17 11:26N 40°38' W 073°45'1 1.6
2017-Oct-17 10:53N 40°38' W 073°46'3 6.2
2017-Oct-17 10:25N 40°36' W 073°49'1 2.5
2017-Oct-17 09:59N 40°35' W 073°50'3 6.7
2017-Oct-17 09:30N 40°34' W 073°54'1 1.2
2017-Oct-17 09:00N 40°34' W 073°55'3 5.2
2017-Oct-17 08:30N 40°34' W 073°58'2 4.4
2017-Oct-17 08:00N 40°34' W 074°01'3 5.1
2017-Oct-17 07:30N 40°37' W 074°03'2 4.3
2017-Oct-17 07:01N 40°39' W 074°02'1 1.1
2017-Oct-17 06:31N 40°39' W 074°02'0 0.1
2017-Oct-17 06:00N 40°39' W 074°02'0 0.0
2017-Oct-17 05:30N 40°39' W 074°02'0 0.0
2017-Oct-17 05:00N 40°39' W 074°02'0 0.0
2017-Oct-17 04:30N 40°39' W 074°02'0 0.0
2017-Oct-17 04:00N 40°39' W 074°02'1 1.4
2017-Oct-17 03:31N 40°40' W 074°03'4 7.1
2017-Oct-17 03:00N 40°43' W 074°01'3 6.8
2017-Oct-17 02:30N 40°47' W 074°00'3 6.1
2017-Oct-17 02:00N 40°49' W 073°58'2 5.0
2017-Oct-17 01:30N 40°52' W 073°57'2 4.4
2017-Oct-17 00:58N 40°54' W 073°56'  
2017-Oct-14 07:57N 40°53' W 073°56'4 7.8
2017-Oct-14 07:30N 40°50' W 073°58'4 7.7
2017-Oct-14 07:00N 40°47' W 073°60'4 7.1
2017-Oct-14 06:30N 40°43' W 074°01'3 6.6
2017-Oct-14 06:00N 40°40' W 074°03'1 2.3
2017-Oct-14 05:30N 40°39' W 074°02'0 0.5
2017-Oct-14 05:00N 40°39' W 074°02'0 0.1
2017-Oct-14 04:30N 40°39' W 074°02'3 6.7
2017-Oct-14 04:00N 40°39' W 074°06'0 0.1
2017-Oct-13 21:57N 40°39' W 074°07'3 6.3
2017-Oct-13 21:30N 40°40' W 074°03'2 3.5
2017-Oct-13 21:00N 40°40' W 074°01'0 0.0
2017-Oct-13 20:30N 40°40' W 074°01'0 0.0
2017-Oct-13 20:00N 40°40' W 074°01'0 0.0
2017-Oct-13 19:30N 40°40' W 074°01'0 0.5
2017-Oct-13 19:00N 40°40' W 074°01'1 2.4
2017-Oct-13 18:30N 40°39' W 074°02'1 2.8
2017-Oct-13 18:00N 40°38' W 074°03'3 5.8
2017-Oct-13 17:28N 40°35' W 074°01'6 5.2
2017-Oct-13 16:17N 40°34' W 073°53'7 3.7
2017-Oct-13 14:18N 40°38' W 073°45'0 0.0
2017-Oct-13 13:57N 40°38' W 073°45'0 0.0
2017-Oct-13 12:45N 40°38' W 073°45'0 0.0
2017-Oct-13 03:49N 40°38' W 073°45'0 0.0
2017-Oct-13 03:29N 40°38' W 073°45'0 0.0
2017-Oct-13 03:00N 40°38' W 073°45'0 0.0
2017-Oct-13 02:18N 40°38' W 073°45'4 0.2
2017-Oct-12 04:17N 40°35' W 073°49'1 4.9
2017-Oct-12 04:00N 40°35' W 073°51'3 5.2
2017-Oct-12 03:29N 40°34' W 073°54'0 0.1
2017-Oct-12 02:59N 40°34' W 073°54'2 4.6
2017-Oct-12 02:29N 40°34' W 073°57'2 3.1
2017-Oct-12 02:00N 40°34' W 073°59'2 3.1
2017-Oct-12 01:30N 40°34' W 074°01'2 4.5
2017-Oct-12 01:00N 40°36' W 074°02'2 3.8
2017-Oct-12 00:30N 40°38' W 074°03'1 2.3
2017-Oct-12 00:00N 40°39' W 074°02'0 0.1
2017-Oct-11 23:30N 40°39' W 074°02'1 2.5
2017-Oct-11 23:00N 40°40' W 074°01'0 0.0
2017-Oct-11 22:30N 40°40' W 074°01'1 2.5
2017-Oct-11 22:00N 40°39' W 074°02'0 0.2
2017-Oct-11 21:30N 40°39' W 074°02'1 2.5
2017-Oct-11 21:00N 40°40' W 074°03'3 5.8
2017-Oct-11 20:30N 40°43' W 074°01'3 5.5
2017-Oct-11 20:01N 40°46' W 074°01'2 4.7
2017-Oct-11 19:30N 40°48' W 073°59'2 3.9
2017-Oct-11 18:59N 40°50' W 073°58'2 3.5
2017-Oct-11 18:30N 40°51' W 073°57'2 3.4
2017-Oct-11 18:01N 40°53' W 073°56'0 0.0
2017-Oct-09 14:12N 40°53' W 073°56'2 9.4
2017-Oct-09 14:00N 40°51' W 073°57'4 8.7
2017-Oct-09 13:30N 40°47' W 073°59'4 7.9
2017-Oct-09 13:01N 40°44' W 074°01'4 7.5
2017-Oct-09 12:30N 40°40' W 074°02'1 1.4
2017-Oct-09 12:00N 40°40' W 074°02'0 0.0
2017-Oct-09 11:31N 40°40' W 074°02'0 0.4
2017-Oct-09 11:00N 40°39' W 074°02'0 0.1
2017-Oct-09 10:31N 40°39' W 074°02'0 0.0
2017-Oct-09 10:00N 40°39' W 074°02'0 0.0
2017-Oct-09 09:30N 40°39' W 074°02'0 0.3
2017-Oct-09 09:01N 40°39' W 074°02'0 0.4
2017-Oct-09 08:31N 40°39' W 074°02'3 5.4
2017-Oct-09 08:00N 40°37' W 074°03'2 3.0
2017-Oct-09 07:29N 40°35' W 074°02'10 2.2
2017-Oct-09 02:56N 40°36' W 073°49'3 4.7
2017-Oct-09 02:23N 40°35' W 073°52'2 4.7
2017-Oct-09 01:58N 40°34' W 073°54'1 2.9
2017-Oct-09 01:29N 40°34' W 073°56'2 4.2
2017-Oct-09 00:58N 40°34' W 073°59'2 3.5
2017-Oct-09 00:30N 40°34' W 074°01'3 5.1
2017-Oct-09 00:01N 40°36' W 074°03'2 4.8
2017-Oct-08 23:31N 40°39' W 074°02'1 1.2
2017-Oct-08 23:01N 40°39' W 074°02'0 0.2
2017-Oct-08 22:31N 40°39' W 074°02'0 0.0
2017-Oct-08 22:01N 40°39' W 074°02'0 0.0
2017-Oct-08 21:30N 40°39' W 074°02'0 0.1
2017-Oct-08 21:00N 40°39' W 074°02'0 0.2
2017-Oct-08 20:31N 40°39' W 074°02'1 1.3
2017-Oct-08 20:00N 40°39' W 074°03'4 7.4
2017-Oct-08 19:30N 40°43' W 074°01'4 7.3
2017-Oct-08 19:00N 40°46' W 074°00'3 6.6
2017-Oct-08 18:30N 40°49' W 073°58'3 5.8
2017-Oct-08 18:00N 40°52' W 073°57'  

Dump ship's entire track history